createdAt,value
2017-02-27T00:00:30.969Z,21.28
2017-02-27T00:01:39.850Z,21.25
2017-02-27T00:02:48.760Z,21.2
2017-02-27T00:03:57.649Z,21.18
2017-02-27T00:05:06.535Z,21.17
2017-02-27T00:06:15.415Z,21.2
2017-02-27T00:07:24.300Z,21.27
2017-02-27T00:08:33.220Z,21.28
2017-02-27T00:09:42.123Z,21.1
2017-02-27T00:10:51.021Z,21.12
2017-02-27T00:11:59.931Z,20.99
2017-02-27T00:13:08.849Z,20.95
2017-02-27T00:14:17.733Z,21.02
2017-02-27T00:15:26.644Z,20.93
2017-02-27T00:16:35.550Z,20.94
2017-02-27T00:17:44.475Z,21.02
2017-02-27T00:18:53.362Z,20.88
2017-02-27T00:20:02.252Z,21.09
2017-02-27T00:21:11.155Z,20.93
2017-02-27T00:22:20.066Z,20.87
2017-02-27T00:23:28.963Z,20.78
2017-02-27T00:24:37.886Z,20.73
2017-02-27T00:25:46.788Z,20.73
2017-02-27T00:26:55.677Z,20.6
2017-02-27T00:28:04.551Z,20.57
2017-02-27T00:29:13.489Z,20.62
2017-02-27T00:30:22.371Z,20.54
2017-02-27T00:31:31.261Z,20.5
2017-02-27T00:32:40.164Z,20.57
2017-02-27T00:33:49.228Z,20.54
2017-02-27T00:34:58.551Z,20.58
2017-02-27T00:36:07.433Z,20.5
2017-02-27T00:37:16.747Z,20.53
2017-02-27T00:38:25.662Z,20.46
2017-02-27T00:39:34.584Z,20.34
2017-02-27T00:40:43.477Z,20.43
2017-02-27T00:41:52.362Z,20.47
2017-02-27T00:43:01.270Z,20.3
2017-02-27T00:44:10.576Z,20.07
2017-02-27T00:45:19.467Z,20.31
2017-02-27T00:46:28.342Z,20.32
2017-02-27T00:47:37.237Z,20.31
2017-02-27T00:48:46.122Z,20.17
2017-02-27T00:49:55.000Z,20.13
2017-02-27T00:51:03.882Z,20.37
2017-02-27T00:52:12.768Z,20.32
2017-02-27T00:53:21.646Z,20.1
2017-02-27T00:54:30.530Z,20.32
2017-02-27T00:55:39.442Z,20.22
2017-02-27T00:56:48.331Z,20.2
2017-02-27T00:57:57.235Z,20.15
2017-02-27T00:59:06.158Z,20.06
2017-02-27T01:00:15.045Z,20
2017-02-27T01:01:23.955Z,20.01
2017-02-27T01:02:32.836Z,19.88
2017-02-27T01:03:41.717Z,19.87
2017-02-27T01:04:50.618Z,19.92
2017-02-27T01:05:59.504Z,20.02
2017-02-27T01:07:08.392Z,20.02
2017-02-27T01:08:17.285Z,19.91
2017-02-27T01:09:26.178Z,19.92
2017-02-27T01:10:35.078Z,19.9
2017-02-27T01:11:43.967Z,19.88
2017-02-27T01:12:53.264Z,19.91
2017-02-27T01:14:02.165Z,19.9
2017-02-27T01:15:11.043Z,19.92
2017-02-27T01:16:19.930Z,19.76
2017-02-27T01:17:28.828Z,19.76
2017-02-27T01:18:38.119Z,19.8
2017-02-27T01:19:47.021Z,19.82
2017-02-27T01:20:55.900Z,19.72
2017-02-27T01:22:05.200Z,19.83
2017-02-27T01:23:14.121Z,19.83
2017-02-27T01:24:23.007Z,19.65
2017-02-27T01:25:31.916Z,19.53
2017-02-27T01:26:40.797Z,19.57
2017-02-27T01:27:49.681Z,19.58
2017-02-27T01:28:58.556Z,19.57
2017-02-27T01:30:07.448Z,19.62
2017-02-27T01:31:16.367Z,19.69
2017-02-27T01:32:25.261Z,19.6
2017-02-27T01:33:34.145Z,19.57
2017-02-27T01:34:43.026Z,19.6
2017-02-27T01:37:48.064Z,19.45
2017-02-27T01:52:38.964Z,19.37
2017-02-27T01:53:50.668Z,19.35
2017-02-27T01:54:59.571Z,19.42
2017-02-27T01:56:08.476Z,19.39
2017-02-27T01:57:17.369Z,19.27
2017-02-27T01:58:26.316Z,19.18
2017-02-27T01:59:35.212Z,19.14
2017-02-27T02:00:44.517Z,19.21
2017-02-27T02:01:53.418Z,19.06
2017-02-27T02:03:02.744Z,19.14
2017-02-27T02:04:11.654Z,19.24
2017-02-27T02:05:20.562Z,19.12
2017-02-27T02:06:29.443Z,19.01
2017-02-27T02:07:38.732Z,19.05
2017-02-27T02:08:47.662Z,18.94
2017-02-27T02:09:56.587Z,18.79
2017-02-27T02:11:05.510Z,18.87
2017-02-27T02:12:14.836Z,18.97
2017-02-27T02:13:23.742Z,18.99
2017-02-27T02:14:32.670Z,18.9
2017-02-27T02:15:41.560Z,18.89
2017-02-27T02:16:50.456Z,18.91
2017-02-27T02:17:59.347Z,18.83
2017-02-27T02:19:08.241Z,18.9
2017-02-27T02:20:17.120Z,19.01
2017-02-27T02:21:26.010Z,18.86
2017-02-27T02:22:34.898Z,18.9
2017-02-27T02:23:43.802Z,18.91
2017-02-27T02:24:52.727Z,19.01
2017-02-27T02:26:01.614Z,18.79
2017-02-27T02:27:10.498Z,18.94
2017-02-27T02:28:19.381Z,18.87
2017-02-27T02:29:28.268Z,18.84
2017-02-27T02:30:37.155Z,18.83
2017-02-27T02:31:46.478Z,18.68
2017-02-27T02:32:55.375Z,18.66
2017-02-27T02:34:04.283Z,18.72
2017-02-27T02:35:13.173Z,18.76
2017-02-27T02:36:22.089Z,18.79
2017-02-27T02:37:31.417Z,18.68
2017-02-27T02:38:40.695Z,18.81
2017-02-27T02:39:49.583Z,18.76
2017-02-27T02:40:58.492Z,18.76
2017-02-27T02:42:07.370Z,18.77
2017-02-27T02:43:16.256Z,18.76
2017-02-27T02:44:25.136Z,18.79
2017-02-27T02:45:34.026Z,18.68
2017-02-27T02:46:43.322Z,18.76
2017-02-27T02:47:52.228Z,18.84
2017-02-27T02:49:01.140Z,18.77
2017-02-27T02:50:10.046Z,18.71
2017-02-27T02:51:18.942Z,18.64
2017-02-27T02:52:27.861Z,18.65
2017-02-27T02:53:36.761Z,18.59
2017-02-27T02:54:45.657Z,18.49
2017-02-27T02:55:54.539Z,18.44
2017-02-27T02:57:03.451Z,18.51
2017-02-27T02:58:12.368Z,18.5
2017-02-27T02:59:21.707Z,18.43
2017-02-27T03:00:30.628Z,18.43
2017-02-27T03:01:39.948Z,18.43
2017-02-27T03:02:48.837Z,18.49
2017-02-27T03:03:57.728Z,18.46
2017-02-27T03:05:06.614Z,18.42
2017-02-27T03:06:15.744Z,18.43
2017-02-27T03:07:24.642Z,18.42
2017-02-27T03:08:33.526Z,18.34
2017-02-27T03:09:42.423Z,18.46
2017-02-27T03:10:51.329Z,18.47
2017-02-27T03:12:00.215Z,18.42
2017-02-27T03:13:09.112Z,18.51
2017-02-27T03:14:17.997Z,18.42
2017-02-27T03:15:26.877Z,18.4
2017-02-27T03:16:35.790Z,18.34
2017-02-27T03:17:44.694Z,18.4
2017-02-27T03:18:53.607Z,18.28
2017-02-27T03:20:02.503Z,18.25
2017-02-27T03:21:11.788Z,18.36
2017-02-27T03:22:20.668Z,18.29
2017-02-27T03:23:33.096Z,18.14
2017-02-27T03:24:46.844Z,18.25
2017-02-27T03:25:56.004Z,18.13
2017-02-27T03:27:04.905Z,18.19
2017-02-27T03:28:13.804Z,18.17
2017-02-27T03:29:22.695Z,18.09
2017-02-27T03:30:31.584Z,18.16
2017-02-27T03:31:40.484Z,18.19
2017-02-27T03:32:49.377Z,18.19
2017-02-27T03:33:58.262Z,18.28
2017-02-27T03:35:07.152Z,18.28
2017-02-27T03:36:16.063Z,18.19
2017-02-27T03:37:25.019Z,18.25
2017-02-27T03:38:33.918Z,18.17
2017-02-27T03:39:42.808Z,18.17
2017-02-27T03:40:51.718Z,18.34
2017-02-27T03:42:00.609Z,18.22
2017-02-27T03:43:09.555Z,18.19
2017-02-27T03:44:18.443Z,18.21
2017-02-27T03:45:27.322Z,18.22
2017-02-27T03:46:37.009Z,18.13
2017-02-27T03:47:45.931Z,18.14
2017-02-27T03:48:54.865Z,18.06
2017-02-27T03:50:04.163Z,18.06
2017-02-27T03:51:13.057Z,18.03
2017-02-27T03:52:21.956Z,18.06
2017-02-27T03:53:30.868Z,18.07
2017-02-27T03:54:39.771Z,18.02
2017-02-27T03:55:48.665Z,17.91
2017-02-27T03:56:57.558Z,17.8
2017-02-27T03:58:06.472Z,17.96
2017-02-27T03:59:15.357Z,18.02
2017-02-27T04:00:24.263Z,17.91
2017-02-27T04:01:33.164Z,17.89
2017-02-27T04:02:42.056Z,17.89
2017-02-27T04:03:50.949Z,17.91
2017-02-27T04:04:59.827Z,17.92
2017-02-27T04:06:09.127Z,17.76
2017-02-27T04:07:18.016Z,17.92
2017-02-27T04:08:26.916Z,17.92
2017-02-27T04:09:35.813Z,17.91
2017-02-27T04:10:44.730Z,17.92
2017-02-27T04:11:53.636Z,17.92
2017-02-27T04:13:02.536Z,17.96
2017-02-27T04:14:11.437Z,17.95
2017-02-27T04:15:20.343Z,17.88
2017-02-27T04:16:29.236Z,17.92
2017-02-27T04:17:38.113Z,17.92
2017-02-27T04:18:47.019Z,17.84
2017-02-27T04:19:55.914Z,17.82
2017-02-27T04:21:04.825Z,17.77
2017-02-27T04:22:13.716Z,17.76
2017-02-27T04:23:22.598Z,17.74
2017-02-27T04:24:31.504Z,17.73
2017-02-27T04:25:40.394Z,17.64
2017-02-27T04:26:49.292Z,17.66
2017-02-27T04:27:58.186Z,17.74
2017-02-27T04:29:07.070Z,17.77
2017-02-27T04:30:15.983Z,17.79
2017-02-27T04:31:24.892Z,17.64
2017-02-27T04:32:34.204Z,17.74
2017-02-27T04:33:43.109Z,17.71
2017-02-27T04:34:51.998Z,17.66
2017-02-27T04:36:00.889Z,17.55
2017-02-27T04:37:09.767Z,17.53
2017-02-27T04:38:18.665Z,17.62
2017-02-27T04:39:27.984Z,17.53
2017-02-27T04:40:36.918Z,17.53
2017-02-27T04:41:46.217Z,17.54
2017-02-27T04:42:55.117Z,17.54
2017-02-27T04:44:04.000Z,17.48
2017-02-27T04:45:12.884Z,17.51
2017-02-27T04:46:21.787Z,17.42
2017-02-27T04:47:30.683Z,17.42
2017-02-27T04:48:39.600Z,17.45
2017-02-27T04:49:48.509Z,17.42
2017-02-27T04:50:57.395Z,17.32
2017-02-27T04:52:06.294Z,17.33
2017-02-27T04:53:15.179Z,17.39
2017-02-27T04:54:24.077Z,17.47
2017-02-27T04:55:32.954Z,17.4
2017-02-27T04:56:41.855Z,17.3
2017-02-27T04:57:50.739Z,17.28
2017-02-27T04:58:59.615Z,17.32
2017-02-27T05:00:08.916Z,17.2
2017-02-27T05:01:17.795Z,17.35
2017-02-27T05:02:26.682Z,17.33
2017-02-27T05:03:35.581Z,17.3
2017-02-27T05:04:44.476Z,17.23
2017-02-27T05:05:53.358Z,17.36
2017-02-27T05:07:02.245Z,17.32
2017-02-27T05:08:11.144Z,17.21
2017-02-27T05:09:20.042Z,17.24
2017-02-27T05:10:28.932Z,17.26
2017-02-27T05:11:37.812Z,17.24
2017-02-27T05:12:46.684Z,17.24
2017-02-27T05:13:55.606Z,17.24
2017-02-27T05:15:04.501Z,17.23
2017-02-27T05:16:13.383Z,17.47
2017-02-27T05:17:22.268Z,17.48
2017-02-27T05:18:31.194Z,17.48
2017-02-27T05:19:40.094Z,17.39
2017-02-27T05:20:49.005Z,17.33
2017-02-27T05:21:58.843Z,17.33
2017-02-27T05:23:07.723Z,17.26
2017-02-27T05:24:16.601Z,17.21
2017-02-27T05:25:25.494Z,17.08
2017-02-27T05:26:34.787Z,17.02
2017-02-27T05:27:43.704Z,16.98
2017-02-27T05:28:52.591Z,16.95
2017-02-27T05:30:01.466Z,16.99
2017-02-27T05:31:10.343Z,16.96
2017-02-27T05:32:19.252Z,17.02
2017-02-27T05:33:28.577Z,17.08
2017-02-27T05:34:37.873Z,17.05
2017-02-27T05:35:46.753Z,16.99
2017-02-27T05:36:55.687Z,17.02
2017-02-27T05:38:04.965Z,16.96
2017-02-27T05:39:13.853Z,17.02
2017-02-27T05:40:22.722Z,16.9
2017-02-27T05:41:31.624Z,16.82
2017-02-27T05:42:40.518Z,16.89
2017-02-27T05:43:49.399Z,16.77
2017-02-27T05:44:58.278Z,16.81
2017-02-27T05:46:07.164Z,16.99
2017-02-27T05:47:16.049Z,16.89
2017-02-27T05:48:24.965Z,16.98
2017-02-27T05:49:34.240Z,16.9
2017-02-27T05:50:43.125Z,16.93
2017-02-27T05:51:52.004Z,16.77
2017-02-27T05:53:00.901Z,16.74
2017-02-27T05:54:09.816Z,16.77
2017-02-27T05:55:18.729Z,16.77
2017-02-27T05:56:27.629Z,16.81
2017-02-27T05:57:36.520Z,16.9
2017-02-27T05:58:45.414Z,16.84
2017-02-27T05:59:54.312Z,16.81
2017-02-27T06:01:03.197Z,16.85
2017-02-27T06:02:12.900Z,16.82
2017-02-27T06:03:21.799Z,16.81
2017-02-27T06:04:30.685Z,16.78
2017-02-27T06:05:39.976Z,16.85
2017-02-27T06:06:48.868Z,16.95
2017-02-27T06:07:57.765Z,17.13
2017-02-27T06:09:06.656Z,17.33
2017-02-27T06:10:15.548Z,17.62
2017-02-27T06:11:24.443Z,17.84
2017-02-27T06:12:33.320Z,17.89
2017-02-27T06:13:42.199Z,17.82
2017-02-27T06:14:51.085Z,17.89
2017-02-27T06:15:59.997Z,17.86
2017-02-27T06:17:08.896Z,17.88
2017-02-27T06:18:17.793Z,17.85
2017-02-27T06:19:27.101Z,17.98
2017-02-27T06:20:35.986Z,18.17
2017-02-27T06:21:44.879Z,18.26
2017-02-27T06:22:53.763Z,18.39
2017-02-27T06:24:02.685Z,18.39
2017-02-27T06:25:11.581Z,18.44
2017-02-27T06:26:20.525Z,18.47
2017-02-27T06:27:29.400Z,18.59
2017-02-27T06:28:38.283Z,18.58
2017-02-27T06:29:47.185Z,18.58
2017-02-27T06:30:56.083Z,18.66
2017-02-27T06:32:04.975Z,18.69
2017-02-27T06:33:13.883Z,18.66
2017-02-27T06:34:22.764Z,18.74
2017-02-27T06:35:31.643Z,18.72
2017-02-27T06:36:40.525Z,18.81
2017-02-27T06:37:49.421Z,18.86
2017-02-27T06:38:58.297Z,18.86
2017-02-27T06:40:07.206Z,18.95
2017-02-27T06:41:16.103Z,18.87
2017-02-27T06:42:24.997Z,18.9
2017-02-27T06:43:33.892Z,19.01
2017-02-27T06:44:42.789Z,18.97
2017-02-27T06:45:51.690Z,19.05
2017-02-27T06:47:00.602Z,19.06
2017-02-27T06:48:09.482Z,19.05
2017-02-27T06:49:18.391Z,19.17
2017-02-27T06:50:27.675Z,19.21
2017-02-27T06:51:36.582Z,19.25
2017-02-27T06:52:45.466Z,19.32
2017-02-27T06:53:54.354Z,19.33
2017-02-27T06:55:03.239Z,19.37
2017-02-27T06:56:12.124Z,19.32
2017-02-27T06:57:21.433Z,19.4
2017-02-27T06:58:30.737Z,19.45
2017-02-27T06:59:39.648Z,19.47
2017-02-27T07:00:48.559Z,19.53
2017-02-27T07:01:57.471Z,19.55
2017-02-27T07:03:06.802Z,19.6
2017-02-27T07:04:15.964Z,19.61
2017-02-27T07:05:24.977Z,19.65
2017-02-27T07:06:33.887Z,19.64
2017-02-27T07:07:42.775Z,19.72
2017-02-27T07:08:51.686Z,19.76
2017-02-27T07:10:00.584Z,19.76
2017-02-27T07:11:09.805Z,19.75
2017-02-27T07:12:18.730Z,19.82
2017-02-27T07:13:27.631Z,19.77
2017-02-27T07:14:36.530Z,19.79
2017-02-27T07:15:45.457Z,19.9
2017-02-27T07:16:54.745Z,19.9
2017-02-27T07:18:03.675Z,19.83
2017-02-27T07:19:12.586Z,19.9
2017-02-27T07:20:21.902Z,19.87
2017-02-27T07:21:30.785Z,19.9
2017-02-27T07:22:39.676Z,19.77
2017-02-27T07:23:48.586Z,19.79
2017-02-27T07:24:57.479Z,19.87
2017-02-27T07:26:06.376Z,19.88
2017-02-27T07:27:15.291Z,19.88
2017-02-27T07:28:24.214Z,19.95
2017-02-27T07:29:33.131Z,19.91
2017-02-27T07:30:42.413Z,20.01
2017-02-27T07:31:51.317Z,20.04
2017-02-27T07:33:00.213Z,20.01
2017-02-27T07:34:09.528Z,19.98
2017-02-27T07:35:18.411Z,20.01
2017-02-27T07:36:27.341Z,20.04
2017-02-27T07:37:36.255Z,20
2017-02-27T07:38:45.149Z,20.07
2017-02-27T07:39:54.067Z,20.06
2017-02-27T07:41:03.362Z,20.1
2017-02-27T07:42:12.241Z,20.07
2017-02-27T07:43:21.140Z,20.07
2017-02-27T07:44:30.037Z,20.09
2017-02-27T07:45:38.918Z,20.1
2017-02-27T07:46:48.221Z,20.12
2017-02-27T07:47:57.129Z,20.1
2017-02-27T07:49:06.423Z,20.12
2017-02-27T07:50:15.342Z,20.16
2017-02-27T07:51:24.291Z,20.12
2017-02-27T07:52:33.210Z,20.12
2017-02-27T07:53:42.128Z,20.2
2017-02-27T07:54:51.435Z,20.07
2017-02-27T07:56:00.341Z,20.07
2017-02-27T07:57:09.640Z,20.2
2017-02-27T07:58:18.569Z,20.28
2017-02-27T07:59:27.470Z,20.2
2017-02-27T08:00:36.371Z,20.25
2017-02-27T08:01:45.288Z,20.32
2017-02-27T08:02:54.199Z,20.25
2017-02-27T08:04:03.087Z,20.31
2017-02-27T08:05:12.008Z,20.28
2017-02-27T08:06:20.937Z,20.31
2017-02-27T08:07:29.858Z,20.31
2017-02-27T08:08:38.784Z,20.31
2017-02-27T08:09:47.671Z,20.34
2017-02-27T08:10:56.556Z,20.32
2017-02-27T08:12:05.458Z,20.34
2017-02-27T08:13:14.396Z,20.34
2017-02-27T08:14:23.306Z,20.27
2017-02-27T08:15:32.607Z,20.37
2017-02-27T08:16:41.488Z,20.4
2017-02-27T08:17:50.423Z,20.38
2017-02-27T08:18:59.324Z,20.4
2017-02-27T08:20:08.262Z,20.38
2017-02-27T08:21:17.177Z,20.41
2017-02-27T08:22:26.077Z,20.37
2017-02-27T08:23:35.000Z,20.43
2017-02-27T08:24:43.893Z,20.46
2017-02-27T08:25:52.787Z,20.43
2017-02-27T08:27:01.710Z,20.43
2017-02-27T08:28:10.602Z,20.47
2017-02-27T08:29:19.495Z,20.5
2017-02-27T08:30:28.375Z,20.5
2017-02-27T08:31:37.273Z,20.51
2017-02-27T08:32:46.570Z,20.51
2017-02-27T08:33:55.475Z,20.5
2017-02-27T08:35:04.365Z,20.53
2017-02-27T08:36:13.265Z,20.54
2017-02-27T08:37:22.144Z,20.51
2017-02-27T08:38:31.039Z,20.5
2017-02-27T08:39:39.961Z,20.53
2017-02-27T08:40:48.878Z,20.46
2017-02-27T08:41:57.793Z,20.48
2017-02-27T08:43:06.697Z,20.48
2017-02-27T08:44:15.601Z,20.53
2017-02-27T08:45:24.482Z,20.56
2017-02-27T08:46:33.392Z,20.53
2017-02-27T08:47:42.290Z,20.58
2017-02-27T08:48:51.196Z,20.57
2017-02-27T08:50:00.113Z,20.58
2017-02-27T08:51:09.416Z,20.6
2017-02-27T08:52:18.341Z,20.57
2017-02-27T08:53:27.618Z,20.57
2017-02-27T08:54:36.963Z,20.63
2017-02-27T08:55:45.888Z,20.6
2017-02-27T08:56:54.796Z,20.62
2017-02-27T08:58:03.681Z,20.63
2017-02-27T08:59:12.590Z,20.6
2017-02-27T09:00:21.473Z,20.63
2017-02-27T09:01:30.361Z,20.63
2017-02-27T09:02:39.682Z,20.63
2017-02-27T09:03:48.578Z,20.69
2017-02-27T09:04:57.457Z,20.71
2017-02-27T09:06:06.761Z,20.72
2017-02-27T09:07:16.048Z,20.68
2017-02-27T09:08:25.049Z,20.71
2017-02-27T09:09:33.948Z,20.71
2017-02-27T09:10:42.852Z,20.73
2017-02-27T09:11:51.746Z,20.75
2017-02-27T09:13:00.630Z,20.71
2017-02-27T09:14:09.518Z,20.72
2017-02-27T09:15:18.431Z,20.81
2017-02-27T09:16:27.326Z,20.87
2017-02-27T09:17:36.231Z,20.81
2017-02-27T09:18:45.137Z,20.71
2017-02-27T09:19:54.023Z,20.78
2017-02-27T09:21:02.926Z,20.78
2017-02-27T09:22:11.843Z,20.81
2017-02-27T09:23:20.758Z,20.72
2017-02-27T09:24:29.659Z,20.84
2017-02-27T09:25:38.551Z,20.83
2017-02-27T09:26:47.463Z,20.83
2017-02-27T09:27:56.373Z,20.91
2017-02-27T09:29:05.279Z,20.9
2017-02-27T09:30:14.565Z,20.83
2017-02-27T09:31:23.870Z,20.84
2017-02-27T09:32:32.781Z,20.87
2017-02-27T09:33:41.671Z,20.81
2017-02-27T09:34:50.561Z,20.91
2017-02-27T09:35:59.446Z,20.88
2017-02-27T09:37:08.754Z,20.87
2017-02-27T09:38:17.657Z,20.9
2017-02-27T09:39:26.568Z,20.91
2017-02-27T09:40:35.508Z,20.93
2017-02-27T09:41:44.840Z,20.91
2017-02-27T09:42:53.747Z,20.9
2017-02-27T09:44:02.626Z,20.88
2017-02-27T09:45:11.508Z,20.9
2017-02-27T09:46:20.384Z,20.9
2017-02-27T09:47:29.285Z,20.94
2017-02-27T09:48:38.215Z,20.88
2017-02-27T09:49:47.106Z,20.91
2017-02-27T09:50:55.996Z,20.93
2017-02-27T09:52:05.288Z,20.93
2017-02-27T09:53:14.185Z,20.88
2017-02-27T09:54:23.069Z,20.94
2017-02-27T09:55:31.953Z,20.9
2017-02-27T09:56:40.881Z,20.93
2017-02-27T09:57:49.798Z,20.9
2017-02-27T09:58:58.681Z,20.97
2017-02-27T10:00:07.582Z,20.93
2017-02-27T10:01:16.501Z,20.87
2017-02-27T10:02:25.798Z,20.93
2017-02-27T10:03:34.710Z,20.97
2017-02-27T10:04:43.643Z,20.94
2017-02-27T10:05:52.573Z,20.99
2017-02-27T10:07:01.475Z,20.97
2017-02-27T10:08:10.370Z,21.02
2017-02-27T10:09:19.249Z,21.06
2017-02-27T10:10:28.140Z,21.05
2017-02-27T10:11:37.039Z,21.09
2017-02-27T10:12:45.961Z,21.03
2017-02-27T10:13:54.874Z,21.02
2017-02-27T10:15:04.183Z,21.01
2017-02-27T10:16:13.112Z,21.15
2017-02-27T10:17:22.020Z,21.1
2017-02-27T10:18:30.900Z,21.1
2017-02-27T10:19:40.187Z,21.15
2017-02-27T10:20:49.072Z,21.1
2017-02-27T10:21:57.973Z,21.1
2017-02-27T10:23:06.890Z,21.09
2017-02-27T10:24:15.773Z,21.18
2017-02-27T10:25:25.082Z,21.18
2017-02-27T10:26:33.965Z,21.18
2017-02-27T10:27:42.849Z,21.18
2017-02-27T10:28:51.787Z,21.23
2017-02-27T10:30:00.684Z,21.18
2017-02-27T10:31:09.584Z,21.21
2017-02-27T10:32:18.499Z,21.24
2017-02-27T10:33:27.388Z,21.23
2017-02-27T10:34:36.303Z,21.27
2017-02-27T10:35:45.209Z,21.23
2017-02-27T10:36:54.095Z,21.25
2017-02-27T10:38:02.983Z,21.25
2017-02-27T10:39:11.868Z,21.27
2017-02-27T10:40:20.780Z,21.25
2017-02-27T10:41:30.073Z,21.2
2017-02-27T10:42:38.952Z,21.25
2017-02-27T10:43:47.855Z,21.31
2017-02-27T10:44:56.772Z,21.38
2017-02-27T10:46:05.688Z,21.34
2017-02-27T10:47:14.572Z,21.38
2017-02-27T10:48:23.473Z,21.33
2017-02-27T10:49:32.354Z,21.43
2017-02-27T10:50:41.252Z,21.4
2017-02-27T10:51:50.165Z,21.38
2017-02-27T10:52:59.066Z,21.42
2017-02-27T10:54:07.969Z,21.54
2017-02-27T10:55:16.857Z,21.5
2017-02-27T10:56:26.159Z,21.52
2017-02-27T10:57:35.061Z,21.57
2017-02-27T10:58:43.963Z,21.55
2017-02-27T10:59:52.872Z,21.61
2017-02-27T11:01:01.790Z,21.64
2017-02-27T11:02:10.714Z,21.6
2017-02-27T11:03:19.615Z,21.61
2017-02-27T11:04:28.530Z,21.63
2017-02-27T11:05:37.429Z,21.64
2017-02-27T11:06:46.326Z,21.61
2017-02-27T11:07:55.219Z,21.64
2017-02-27T11:09:04.131Z,21.71
2017-02-27T11:10:13.032Z,21.6
2017-02-27T11:11:21.937Z,21.63
2017-02-27T11:12:31.253Z,21.6
2017-02-27T11:13:40.148Z,21.58
2017-02-27T11:14:49.458Z,21.68
2017-02-27T11:15:58.361Z,21.63
2017-02-27T11:17:07.253Z,21.67
2017-02-27T11:18:16.147Z,21.64
2017-02-27T11:19:25.050Z,21.68
2017-02-27T11:20:33.952Z,21.7
2017-02-27T11:21:42.849Z,21.75
2017-02-27T11:22:51.783Z,21.65
2017-02-27T11:24:01.089Z,21.65
2017-02-27T11:25:10.008Z,21.63
2017-02-27T11:26:18.914Z,21.63
2017-02-27T11:27:27.847Z,21.63
2017-02-27T11:28:36.770Z,21.7
2017-02-27T11:29:45.691Z,21.67
2017-02-27T11:30:54.589Z,21.65
2017-02-27T11:32:03.467Z,21.67
2017-02-27T11:33:12.348Z,21.68
2017-02-27T11:34:21.645Z,21.68
2017-02-27T11:35:30.834Z,21.65
2017-02-27T11:36:39.716Z,21.6
2017-02-27T11:37:48.612Z,21.68
2017-02-27T11:38:57.905Z,21.75
2017-02-27T11:40:06.847Z,21.64
2017-02-27T11:41:15.758Z,21.68
2017-02-27T11:42:24.649Z,21.78
2017-02-27T11:43:33.556Z,21.68
2017-02-27T11:44:42.457Z,21.7
2017-02-27T11:45:51.339Z,21.8
2017-02-27T11:47:00.233Z,21.7
2017-02-27T11:48:09.130Z,21.76
2017-02-27T11:49:18.027Z,21.8
2017-02-27T11:50:27.324Z,21.71
2017-02-27T11:51:36.206Z,21.83
2017-02-27T11:52:45.091Z,21.82
2017-02-27T11:53:53.968Z,21.86
2017-02-27T11:55:03.272Z,21.86
2017-02-27T11:56:12.194Z,21.85
2017-02-27T11:57:21.106Z,21.8
2017-02-27T11:58:30.016Z,21.86
2017-02-27T11:59:38.940Z,21.85
2017-02-27T12:00:47.871Z,21.83
2017-02-27T12:01:57.176Z,21.86
2017-02-27T12:03:06.494Z,21.9
2017-02-27T12:04:15.775Z,21.82
2017-02-27T12:05:24.662Z,21.86
2017-02-27T12:06:33.570Z,21.83
2017-02-27T12:07:42.464Z,21.82
2017-02-27T12:08:51.398Z,21.9
2017-02-27T12:10:00.690Z,21.92
2017-02-27T12:11:09.621Z,21.98
2017-02-27T12:12:18.537Z,21.9
2017-02-27T12:13:27.430Z,21.9
2017-02-27T12:14:36.315Z,21.96
2017-02-27T12:15:45.197Z,21.92
2017-02-27T12:16:54.074Z,21.98
2017-02-27T12:18:02.964Z,21.94
2017-02-27T12:19:11.858Z,21.94
2017-02-27T12:20:21.172Z,22.02
2017-02-27T12:21:30.087Z,22.02
2017-02-27T12:22:38.988Z,22.02
2017-02-27T12:23:47.877Z,22.02
2017-02-27T12:24:56.769Z,21.99
2017-02-27T12:26:05.706Z,21.98
2017-02-27T12:27:14.639Z,22.04
2017-02-27T12:28:23.546Z,21.99
2017-02-27T12:29:32.447Z,22.02
2017-02-27T12:30:41.348Z,22.01
2017-02-27T12:31:50.238Z,22.02
2017-02-27T12:32:59.133Z,21.96
2017-02-27T12:34:08.422Z,21.95
2017-02-27T12:35:17.320Z,22.01
2017-02-27T12:36:26.217Z,21.99
2017-02-27T12:37:35.104Z,22.02
2017-02-27T12:38:44.012Z,21.99
2017-02-27T12:39:53.309Z,22.05
2017-02-27T12:41:02.191Z,22.04
2017-02-27T12:42:11.088Z,22.04
2017-02-27T12:43:19.969Z,22.02
2017-02-27T12:44:28.870Z,22.06
2017-02-27T12:45:37.776Z,22.04
2017-02-27T12:46:46.661Z,22.06
2017-02-27T12:47:55.974Z,22.04
2017-02-27T12:49:04.858Z,22.04
2017-02-27T12:50:13.759Z,22.04
2017-02-27T12:51:22.671Z,22.04
2017-02-27T12:52:31.558Z,22.04
2017-02-27T12:53:40.459Z,22.08
2017-02-27T12:54:49.364Z,22.09
2017-02-27T12:55:58.693Z,22.09
2017-02-27T12:57:07.598Z,21.98
2017-02-27T12:58:16.534Z,22.06
2017-02-27T12:59:25.448Z,22.13
2017-02-27T13:00:34.331Z,22.11
2017-02-27T13:01:43.230Z,22.09
2017-02-27T13:02:52.113Z,22.14
2017-02-27T13:04:00.996Z,22.06
2017-02-27T13:05:10.296Z,22.11
2017-02-27T13:06:19.180Z,22.17
2017-02-27T13:07:28.072Z,22.16
2017-02-27T13:08:36.963Z,22.08
2017-02-27T13:09:45.859Z,22.09
2017-02-27T13:10:54.742Z,22.17
2017-02-27T13:12:03.658Z,22.16
2017-02-27T13:13:12.545Z,22.19
2017-02-27T13:14:21.445Z,22.17
2017-02-27T13:15:30.393Z,22.14
2017-02-27T13:16:39.301Z,22.19
2017-02-27T13:17:48.197Z,22.19
2017-02-27T13:18:57.134Z,22.09
2017-02-27T13:20:06.420Z,22.13
2017-02-27T13:21:15.332Z,22.23
2017-02-27T13:22:24.241Z,22.2
2017-02-27T13:23:33.166Z,22.21
2017-02-27T13:24:42.065Z,22.24
2017-02-27T13:25:51.370Z,22.27
2017-02-27T13:27:00.267Z,22.24
2017-02-27T13:28:09.154Z,22.29
2017-02-27T13:29:18.074Z,22.23
2017-02-27T13:30:27.359Z,22.24
2017-02-27T13:31:36.273Z,22.21
2017-02-27T13:32:45.197Z,22.19
2017-02-27T13:33:54.124Z,22.24
2017-02-27T13:35:03.020Z,22.31
2017-02-27T13:36:12.204Z,22.21
2017-02-27T13:37:21.101Z,22.23
2017-02-27T13:38:29.989Z,22.21
2017-02-27T13:39:38.899Z,22.26
2017-02-27T13:40:47.823Z,22.34
2017-02-27T13:41:56.734Z,22.31
2017-02-27T13:43:06.049Z,22.32
2017-02-27T13:44:14.930Z,22.26
2017-02-27T13:45:23.814Z,22.19
2017-02-27T13:46:32.713Z,22.24
2017-02-27T13:47:41.596Z,22.24
2017-02-27T13:48:50.493Z,22.23
2017-02-27T13:49:59.376Z,22.26
2017-02-27T13:51:08.275Z,22.24
2017-02-27T13:52:17.184Z,22.2
2017-02-27T13:53:26.119Z,22.31
2017-02-27T13:54:35.424Z,22.23
2017-02-27T13:55:44.320Z,22.24
2017-02-27T13:56:53.643Z,22.32
2017-02-27T13:58:02.542Z,22.35
2017-02-27T13:59:11.451Z,22.32
2017-02-27T14:00:20.387Z,22.31
2017-02-27T14:01:29.290Z,22.29
2017-02-27T14:02:38.177Z,22.29
2017-02-27T14:03:47.059Z,22.31
2017-02-27T14:04:55.984Z,22.36
2017-02-27T14:06:04.895Z,22.35
2017-02-27T14:07:13.814Z,22.36
2017-02-27T14:08:22.707Z,22.31
2017-02-27T14:09:31.616Z,22.35
2017-02-27T14:10:40.505Z,22.36
2017-02-27T14:11:49.391Z,22.35
2017-02-27T14:12:58.288Z,22.36
2017-02-27T14:14:07.168Z,22.32
2017-02-27T14:15:16.076Z,22.27
2017-02-27T14:16:24.969Z,22.39
2017-02-27T14:17:33.883Z,22.41
2017-02-27T14:18:42.783Z,22.35
2017-02-27T14:19:51.729Z,22.34
2017-02-27T14:21:00.640Z,22.39
2017-02-27T14:22:09.528Z,22.36
2017-02-27T14:23:18.427Z,22.36
2017-02-27T14:24:27.315Z,22.38
2017-02-27T14:25:36.220Z,22.38
2017-02-27T14:26:45.116Z,22.39
2017-02-27T14:27:54.002Z,22.35
2017-02-27T14:29:02.894Z,22.35
2017-02-27T14:30:11.788Z,22.31
2017-02-27T14:31:21.111Z,22.32
2017-02-27T14:32:30.029Z,22.32
2017-02-27T14:33:38.936Z,22.32
2017-02-27T14:34:47.824Z,22.39
2017-02-27T14:35:56.706Z,22.31
2017-02-27T14:37:05.621Z,22.31
2017-02-27T14:38:14.511Z,22.29
2017-02-27T14:39:23.399Z,22.36
2017-02-27T14:40:32.330Z,22.36
2017-02-27T14:41:41.222Z,22.38
2017-02-27T14:42:50.108Z,22.34
2017-02-27T14:43:58.991Z,22.38
2017-02-27T14:45:07.902Z,22.35
2017-02-27T14:46:16.783Z,22.49
2017-02-27T14:47:25.676Z,22.39
2017-02-27T14:48:34.589Z,22.39
2017-02-27T14:49:43.498Z,22.38
2017-02-27T14:50:52.412Z,22.38
2017-02-27T14:52:01.299Z,22.42
2017-02-27T14:53:10.214Z,22.43
2017-02-27T14:54:19.116Z,22.43
2017-02-27T14:55:28.022Z,22.43
2017-02-27T14:56:36.904Z,22.45
2017-02-27T14:57:45.831Z,22.49
2017-02-27T14:58:54.727Z,22.46
2017-02-27T15:00:03.619Z,22.43
2017-02-27T15:01:12.497Z,22.49
2017-02-27T15:02:21.419Z,22.46
2017-02-27T15:03:30.325Z,22.49
2017-02-27T15:04:39.214Z,22.46
2017-02-27T15:05:48.105Z,22.54
2017-02-27T15:06:56.985Z,22.45